PAL1815 RPLL-RPMD
Flight info
| Callsign | PAL1815 |
|---|---|
| Flight time | N/A |
| Altitude | 35000 |
| Route | IPATA2R IPATA B462 MASBA W9A BN W9 RIMAR RIMAR2R |
| Aircraft | A321/M-SDE3FGHIRWY/LB1 |
Departure
| Time | N/A |
|---|---|
| Airport | Ninoy Aquino International Airport (RPLL) |
Arrival
| Time | 2026-04-30 18:47 |
|---|---|
| Airport | Francisco Bangoy International Airport (RPMD) |
| Time | Latitude | Longitude | Altitude | Speed | Heading |
|---|---|---|---|---|---|
| 2026-04-30 17:39 | 12.99567 | 122.87386 | 33605 ft | 445 kts | 131° |
| 2026-04-30 17:41 | 12.83325 | 123.07051 | 34902 ft | 452 kts | 131° |
| 2026-04-30 17:42 | 12.79228 | 123.12005 | 34905 ft | 452 kts | 131° |
| 2026-04-30 17:43 | 12.68970 | 123.24396 | 34907 ft | 450 kts | 131° |
| 2026-04-30 17:44 | 12.56679 | 123.39226 | 34908 ft | 450 kts | 131° |
| 2026-04-30 17:47 | 12.37897 | 123.60957 | 34901 ft | 448 kts | 139° |
| 2026-04-30 17:48 | 12.27575 | 123.68196 | 34905 ft | 447 kts | 151° |
| 2026-04-30 17:48 | 12.19275 | 123.72770 | 34902 ft | 447 kts | 152° |
| 2026-04-30 17:50 | 11.97097 | 123.84985 | 34903 ft | 447 kts | 151° |
| 2026-04-30 17:52 | 11.80548 | 123.94093 | 34900 ft | 446 kts | 151° |
| 2026-04-30 17:54 | 11.55655 | 124.07767 | 34889 ft | 447 kts | 151° |
| 2026-04-30 17:56 | 11.33399 | 124.19971 | 34883 ft | 447 kts | 151° |
| 2026-04-30 17:58 | 11.16799 | 124.29063 | 34888 ft | 448 kts | 151° |
| 2026-04-30 18:00 | 10.94684 | 124.41054 | 34914 ft | 447 kts | 151° |
| 2026-04-30 18:01 | 10.80825 | 124.48517 | 34906 ft | 446 kts | 151° |
| 2026-04-30 18:02 | 10.64358 | 124.57434 | 34893 ft | 445 kts | 151° |
| 2026-04-30 18:04 | 10.47870 | 124.66378 | 34893 ft | 443 kts | 151° |
| 2026-04-30 18:06 | 10.25988 | 124.78234 | 34890 ft | 442 kts | 151° |
| 2026-04-30 18:08 | 10.06860 | 124.88583 | 34886 ft | 441 kts | 151° |
| 2026-04-30 18:10 | 9.85044 | 125.00375 | 34885 ft | 440 kts | 150° |
| 2026-04-30 18:11 | 9.65962 | 125.10662 | 34880 ft | 440 kts | 150° |
| 2026-04-30 18:13 | 9.52290 | 125.17981 | 34883 ft | 441 kts | 150° |
| 2026-04-30 18:14 | 9.38562 | 125.25294 | 34877 ft | 442 kts | 150° |
| 2026-04-30 18:15 | 9.22099 | 125.34061 | 34875 ft | 442 kts | 150° |
| 2026-04-30 18:16 | 9.11094 | 125.39919 | 34885 ft | 442 kts | 150° |
| 2026-04-30 18:17 | 9.05631 | 125.42827 | 34575 ft | 443 kts | 150° |
| 2026-04-30 18:17 | 9.00071 | 125.45602 | 33399 ft | 440 kts | 154° |
| 2026-04-30 18:18 | 8.97184 | 125.46742 | 32705 ft | 440 kts | 158° |
| 2026-04-30 18:18 | 8.94251 | 125.47691 | 32047 ft | 440 kts | 161° |
| 2026-04-30 18:18 | 8.91254 | 125.48455 | 31353 ft | 442 kts | 165° |
| 2026-04-30 18:18 | 8.88200 | 125.49028 | 30615 ft | 445 kts | 168° |
| 2026-04-30 18:19 | 8.85138 | 125.49405 | 30099 ft | 442 kts | 171° |
| 2026-04-30 18:19 | 8.82175 | 125.49711 | 29620 ft | 438 kts | 172° |
| 2026-04-30 18:19 | 8.79147 | 125.50015 | 29141 ft | 434 kts | 172° |
| 2026-04-30 18:19 | 8.76140 | 125.50318 | 28655 ft | 430 kts | 171° |
| 2026-04-30 18:20 | 8.73155 | 125.50619 | 28182 ft | 426 kts | 171° |
| 2026-04-30 18:20 | 8.70194 | 125.50919 | 27701 ft | 423 kts | 171° |
| 2026-04-30 18:20 | 8.67225 | 125.51220 | 27215 ft | 420 kts | 171° |
| 2026-04-30 18:20 | 8.64304 | 125.51517 | 26737 ft | 417 kts | 171° |
| 2026-04-30 18:21 | 8.61406 | 125.51811 | 26265 ft | 413 kts | 171° |
| 2026-04-30 18:21 | 8.58525 | 125.52106 | 25795 ft | 410 kts | 171° |
| 2026-04-30 18:21 | 8.55662 | 125.52396 | 25330 ft | 407 kts | 171° |
| 2026-04-30 18:21 | 8.52820 | 125.52684 | 24859 ft | 404 kts | 171° |
| 2026-04-30 18:22 | 8.49964 | 125.52955 | 24384 ft | 402 kts | 172° |
| 2026-04-30 18:22 | 8.44423 | 125.53445 | 23462 ft | 397 kts | 172° |
| 2026-04-30 18:22 | 8.41657 | 125.53691 | 23003 ft | 394 kts | 172° |
| 2026-04-30 18:23 | 8.38880 | 125.53938 | 22541 ft | 392 kts | 172° |
| 2026-04-30 18:23 | 8.36161 | 125.54181 | 22092 ft | 390 kts | 172° |
| 2026-04-30 18:23 | 8.33461 | 125.54424 | 21643 ft | 388 kts | 172° |
| 2026-04-30 18:23 | 8.30754 | 125.54667 | 21196 ft | 387 kts | 172° |
| 2026-04-30 18:24 | 8.25369 | 125.55152 | 20300 ft | 384 kts | 172° |
| 2026-04-30 18:24 | 8.22703 | 125.55392 | 19844 ft | 382 kts | 172° |
| 2026-04-30 18:24 | 8.20050 | 125.55630 | 19383 ft | 382 kts | 172° |
| 2026-04-30 18:25 | 8.17378 | 125.55868 | 18916 ft | 381 kts | 172° |
| 2026-04-30 18:25 | 8.12039 | 125.56348 | 17988 ft | 378 kts | 172° |
| 2026-04-30 18:25 | 8.09412 | 125.56583 | 17523 ft | 377 kts | 172° |
| 2026-04-30 18:26 | 8.04165 | 125.57053 | 16583 ft | 375 kts | 172° |
| 2026-04-30 18:26 | 8.01524 | 125.57290 | 16104 ft | 374 kts | 172° |
| 2026-04-30 18:26 | 7.98927 | 125.57522 | 15641 ft | 373 kts | 172° |
| 2026-04-30 18:27 | 7.93696 | 125.57996 | 14697 ft | 370 kts | 172° |
| 2026-04-30 18:27 | 7.91133 | 125.58234 | 14234 ft | 369 kts | 172° |
| 2026-04-30 18:28 | 7.85983 | 125.58710 | 13303 ft | 366 kts | 172° |
| 2026-04-30 18:28 | 7.83439 | 125.58945 | 12837 ft | 364 kts | 172° |
| 2026-04-30 18:28 | 7.78377 | 125.59411 | 11899 ft | 360 kts | 172° |
| 2026-04-30 18:29 | 7.75852 | 125.59643 | 11424 ft | 359 kts | 172° |
| 2026-04-30 18:29 | 7.68402 | 125.60327 | 10312 ft | 345 kts | 172° |
| 2026-04-30 18:30 | 7.63730 | 125.60756 | 9999 ft | 324 kts | 171° |
| 2026-04-30 18:30 | 7.59231 | 125.61171 | 9385 ft | 315 kts | 171° |
| 2026-04-30 18:31 | 7.57048 | 125.61372 | 9101 ft | 310 kts | 171° |
| 2026-04-30 18:31 | 7.52762 | 125.61768 | 8554 ft | 301 kts | 171° |
| 2026-04-30 18:32 | 7.48602 | 125.62151 | 8022 ft | 293 kts | 171° |
| 2026-04-30 18:32 | 7.46579 | 125.62337 | 7751 ft | 289 kts | 171° |
| 2026-04-30 18:32 | 7.42551 | 125.62708 | 7125 ft | 285 kts | 171° |
| 2026-04-30 18:33 | 7.40555 | 125.62891 | 6788 ft | 284 kts | 172° |
| 2026-04-30 18:33 | 7.36592 | 125.63254 | 6141 ft | 282 kts | 172° |
| 2026-04-30 18:33 | 7.34628 | 125.63435 | 6035 ft | 281 kts | 172° |
| 2026-04-30 18:34 | 7.32692 | 125.63610 | 5987 ft | 269 kts | 172° |
| 2026-04-30 18:34 | 7.29126 | 125.63932 | 5960 ft | 243 kts | 172° |
| 2026-04-30 18:34 | 7.27447 | 125.64084 | 5964 ft | 238 kts | 171° |
| 2026-04-30 18:35 | 7.25796 | 125.64235 | 6039 ft | 226 kts | 171° |
| 2026-04-30 18:35 | 7.24266 | 125.64372 | 6009 ft | 209 kts | 171° |
| 2026-04-30 18:35 | 7.22804 | 125.64506 | 5729 ft | 205 kts | 171° |
| 2026-04-30 18:36 | 7.20004 | 125.64770 | 5195 ft | 195 kts | 171° |
| 2026-04-30 18:36 | 7.18665 | 125.64893 | 4954 ft | 189 kts | 171° |
| 2026-04-30 18:36 | 7.16114 | 125.65125 | 4498 ft | 175 kts | 172° |
| 2026-04-30 18:37 | 7.14901 | 125.65237 | 4287 ft | 171 kts | 172° |
| 2026-04-30 18:37 | 7.13701 | 125.65259 | 4081 ft | 172 kts | 182° |
| 2026-04-30 18:37 | 7.12516 | 125.65063 | 3999 ft | 172 kts | 193° |
| 2026-04-30 18:37 | 7.11365 | 125.64650 | 3997 ft | 173 kts | 202° |
| 2026-04-30 18:38 | 7.10261 | 125.64156 | 3992 ft | 173 kts | 203° |
| 2026-04-30 18:38 | 7.09158 | 125.63650 | 3994 ft | 173 kts | 203° |
| 2026-04-30 18:38 | 7.08038 | 125.63139 | 3995 ft | 174 kts | 203° |
| 2026-04-30 18:38 | 7.06929 | 125.62636 | 3995 ft | 173 kts | 203° |
| 2026-04-30 18:39 | 7.05806 | 125.62130 | 3995 ft | 173 kts | 203° |
| 2026-04-30 18:39 | 7.04697 | 125.61632 | 3999 ft | 173 kts | 203° |
| 2026-04-30 18:39 | 7.03582 | 125.61131 | 3995 ft | 173 kts | 203° |
| 2026-04-30 18:39 | 7.02466 | 125.60630 | 3995 ft | 173 kts | 203° |
| 2026-04-30 18:40 | 7.01349 | 125.60129 | 3990 ft | 173 kts | 203° |
| 2026-04-30 18:40 | 7.00228 | 125.59625 | 3996 ft | 172 kts | 203° |
| 2026-04-30 18:40 | 6.99110 | 125.59124 | 4000 ft | 173 kts | 202° |
| 2026-04-30 18:40 | 6.98008 | 125.58631 | 3994 ft | 172 kts | 203° |
| 2026-04-30 18:41 | 6.96947 | 125.58023 | 3984 ft | 172 kts | 221° |
| 2026-04-30 18:41 | 6.96226 | 125.57055 | 3989 ft | 172 kts | 246° |
| 2026-04-30 18:41 | 6.95956 | 125.55883 | 3987 ft | 171 kts | 271° |
| 2026-04-30 18:41 | 6.96163 | 125.54701 | 3893 ft | 170 kts | 294° |
| 2026-04-30 18:42 | 6.96790 | 125.53722 | 3750 ft | 166 kts | 316° |
| 2026-04-30 18:42 | 6.98561 | 125.52207 | 3497 ft | 165 kts | 322° |
| 2026-04-30 18:42 | 6.99478 | 125.51485 | 3357 ft | 164 kts | 332° |
| 2026-04-30 18:45 | 7.07119 | 125.58270 | 1464 ft | 147 kts | 49° |
| 2026-04-30 18:45 | 7.07795 | 125.59054 | 1267 ft | 146 kts | 49° |
| 2026-04-30 18:45 | 7.08461 | 125.59827 | 1073 ft | 145 kts | 49° |
| 2026-04-30 18:46 | 7.09127 | 125.60599 | 880 ft | 145 kts | 48° |
| 2026-04-30 18:46 | 7.09785 | 125.61364 | 689 ft | 145 kts | 48° |
| 2026-04-30 18:46 | 7.10446 | 125.62130 | 496 ft | 145 kts | 48° |
| 2026-04-30 18:46 | 7.11109 | 125.62905 | 311 ft | 144 kts | 48° |
| 2026-04-30 18:47 | 7.11766 | 125.63662 | 161 ft | 144 kts | 48° |
| 2026-04-30 18:47 | 7.12408 | 125.64406 | 113 ft | 128 kts | 49° |
| 2026-04-30 18:47 | 7.12877 | 125.64956 | 113 ft | 77 kts | 49° |
| 2026-04-30 18:47 | 7.13129 | 125.65250 | 113 ft | 37 kts | 49° |
| 2026-04-30 18:48 | 7.13259 | 125.65401 | 113 ft | 17 kts | 49° |
| 2026-04-30 18:48 | 7.13323 | 125.65475 | 113 ft | 10 kts | 49° |
| 2026-04-30 18:48 | 7.13379 | 125.65508 | 113 ft | 9 kts | 5° |
| 2026-04-30 18:48 | 7.13443 | 125.65524 | 113 ft | 9 kts | 36° |
| 2026-04-30 18:49 | 7.13442 | 125.65574 | 113 ft | 7 kts | 152° |
| 2026-04-30 18:49 | 7.13393 | 125.65559 | 113 ft | 8 kts | 226° |
| 2026-04-30 18:49 | 7.13354 | 125.65512 | 113 ft | 9 kts | 231° |
| 2026-04-30 18:49 | 7.13310 | 125.65459 | 113 ft | 10 kts | 228° |
| 2026-04-30 18:50 | 7.13260 | 125.65403 | 113 ft | 11 kts | 229° |
| 2026-04-30 18:50 | 7.13207 | 125.65341 | 113 ft | 11 kts | 230° |
| 2026-04-30 18:50 | 7.13152 | 125.65276 | 113 ft | 12 kts | 229° |
| 2026-04-30 18:50 | 7.13092 | 125.65207 | 113 ft | 13 kts | 229° |
| 2026-04-30 18:51 | 7.13030 | 125.65134 | 113 ft | 13 kts | 230° |
| 2026-04-30 18:51 | 7.12969 | 125.65063 | 113 ft | 13 kts | 229° |
| 2026-04-30 18:51 | 7.12909 | 125.64993 | 113 ft | 12 kts | 229° |
| 2026-04-30 18:51 | 7.12879 | 125.64931 | 113 ft | 9 kts | 287° |
| 2026-04-30 18:52 | 7.12928 | 125.64879 | 113 ft | 10 kts | 319° |
| 2026-04-30 18:52 | 7.12982 | 125.64832 | 113 ft | 10 kts | 319° |
| 2026-04-30 18:52 | 7.13014 | 125.64781 | 113 ft | 8 kts | 260° |
| 2026-04-30 18:52 | 7.12978 | 125.64728 | 113 ft | 9 kts | 228° |
| 2026-04-30 18:53 | 7.12934 | 125.64678 | 113 ft | 8 kts | 229° |
| 2026-04-30 18:53 | 7.12898 | 125.64636 | 113 ft | 6 kts | 229° |
| 2026-04-30 18:53 | 7.12888 | 125.64611 | 113 ft | 3 kts | 279° |
| 2026-04-30 18:53 | 7.12903 | 125.64587 | 113 ft | 3 kts | 316° |
| 2026-04-30 18:54 | 7.12926 | 125.64568 | 113 ft | 4 kts | 321° |
| 2026-04-30 18:54 | 7.12943 | 125.64555 | 113 ft | 0 kts | 320° |
| 2026-04-30 18:54 | 7.12945 | 125.64552 | 113 ft | 0 kts | 319° |
| 2026-04-30 18:54 | 7.12948 | 125.64550 | 113 ft | 0 kts | 319° |
| 2026-04-30 18:55 | 7.12949 | 125.64548 | 113 ft | 0 kts | 319° |